Time;durP1;ratioP1;P1;durP2;ratioP2;P2;SDS_P1;SDS_P2;PMS_P1;PMS_P2;Temp;Humidity;BMP_temperature;BMP_pressure;BME280_temperature;BME280_humidity;BME280_pressure;Samples;Min_cycle;Max_cycle;Signal;HPM_P1;HPM_P2
2022/04/08 00:00:36;;;;;;;;;;;;;;;6.65;69.26;97735.92;1687487;84;20186;-68
2022/04/08 00:03:04;;;;;;;;;;;;;;;6.57;69.20;97732.72;1687063;85;20466;-68
2022/04/08 00:05:29;;;;;;;;;;;;;;;6.51;69.21;97728.55;1675256;85;20177;-68
2022/04/08 00:07:55;;;;;;;;;;;;;;;6.47;69.18;97728.66;1703430;84;20274;-68
2022/04/08 00:10:21;;;;;;;;;;;;;;;6.45;69.15;97728.58;1675203;85;20197;-68
2022/04/08 00:12:47;;;;;;;;;;;;;;;6.43;69.13;97728.80;1687337;85;20178;-68
2022/04/08 00:15:13;;;;;;;;;;;;;;;6.42;69.14;97735.11;1689301;84;21170;-68
2022/04/08 00:17:39;;;;;;;;;;;;;;;6.40;69.10;97734.48;1673389;85;20194;-68
2022/04/08 00:20:05;;;;;;;;;;;;;;;6.42;69.09;97737.75;1673786;85;20329;-68
2022/04/08 00:22:32;;;;;;;;;;;;;;;6.45;69.06;97732.55;1697633;84;20155;-68
2022/04/08 00:24:58;;;;;;;;;;;;;;;6.48;69.03;97728.15;1673567;85;20158;-68
2022/04/08 00:27:24;;;;;;;;;;;;;;;6.48;68.98;97735.59;1697635;84;21157;-68
2022/04/08 00:29:50;;;;;;;;;;;;;;;6.49;68.91;97737.22;1697426;84;20280;-68
2022/04/08 00:32:16;;;;;;;;;;;;;;;6.54;68.80;97736.06;1697555;84;20257;-68
2022/04/08 00:34:42;;;;;;;;;;;;;;;6.57;68.70;97739.33;1697317;84;20240;-69
2022/04/08 00:37:09;;;;;;;;;;;;;;;6.58;68.60;97721.11;1697231;84;20199;-68
2022/04/08 00:39:35;;;;;;;;;;;;;;;6.62;68.46;97746.12;1673773;85;21188;-69
2022/04/08 00:42:01;;;;;;;;;;;;;;;6.67;68.34;97741.02;1673345;85;20680;-69
2022/04/08 00:44:27;;;;;;;;;;;;;;;6.68;68.18;97747.44;1673431;85;20769;-68
2022/04/08 00:46:52;;;;;;;;;;;;;;;6.69;68.08;97738.45;1697363;84;20185;-69
2022/04/08 00:49:18;;;;;;;;;;;;;;;6.75;67.96;97739.47;1697639;84;20174;-69
2022/04/08 00:51:45;;;;;;;;;;;;;;;6.79;67.82;97740.67;1697590;84;21033;-69
2022/04/08 00:54:10;;;;;;;;;;;;;;;6.77;67.69;97737.41;1697430;84;20169;-69
2022/04/08 00:56:36;;;;;;;;;;;;;;;6.75;67.59;97730.20;1697392;84;20324;-69
2022/04/08 00:59:02;;;;;;;;;;;;;;;6.77;67.52;97730.28;1697369;84;20178;-69
2022/04/08 01:01:28;;;;;;;;;;;;;;;6.84;67.34;97735.54;1697596;84;20173;-68
2022/04/08 01:03:54;;;;;;;;;;;;;;;6.87;67.19;97737.77;1673304;85;21200;-69
2022/04/08 01:06:20;;;;;;;;;;;;;;;6.88;67.04;97743.37;1673372;85;20833;-69
2022/04/08 01:08:49;;;;;;;;;;;;;;;6.90;66.91;97738.66;1697540;84;20228;-69
2022/04/08 01:11:16;;;;;;;;;;;;;;;6.93;66.76;97739.05;1677418;84;20176;-69
2022/04/08 01:13:42;;;;;;;;;;;;;;;6.96;66.64;97738.65;1673507;84;20144;-68
2022/04/08 01:16:08;;;;;;;;;;;;;;;6.98;66.50;97746.37;1674084;85;21059;-69
2022/04/08 01:18:35;;;;;;;;;;;;;;;7.00;66.36;97745.13;1675209;85;20140;-69
2022/04/08 01:21:05;;;;;;;;;;;;;;;7.03;66.25;97740.75;1675169;85;20163;-69
2022/04/08 01:23:34;;;;;;;;;;;;;;;7.07;66.09;97746.44;1675275;85;20211;-68
2022/04/08 01:26:05;;;;;;;;;;;;;;;7.11;65.88;97731.71;1675431;85;20147;-68
2022/04/08 01:28:31;;;;;;;;;;;;;;;7.17;65.65;97741.48;1675180;83;21167;-68
2022/04/08 01:30:57;;;;;;;;;;;;;;;7.17;65.51;97726.91;1675331;85;20296;-69
2022/04/08 01:33:23;;;;;;;;;;;;;;;7.17;65.42;97718.14;1675508;85;20197;-68
2022/04/08 01:35:49;;;;;;;;;;;;;;;7.20;65.27;97735.75;1675050;85;20185;-68
2022/04/08 01:38:15;;;;;;;;;;;;;;;7.22;65.11;97723.59;1675291;85;20154;-68
2022/04/08 01:40:40;;;;;;;;;;;;;;;7.26;64.94;97728.26;1675273;85;21146;-68
2022/04/08 01:43:06;;;;;;;;;;;;;;;7.27;64.79;97747.13;1675074;85;20224;-68
2022/04/08 01:45:32;;;;;;;;;;;;;;;7.26;64.72;97745.48;1675255;85;20265;-68
2022/04/08 01:47:58;;;;;;;;;;;;;;;7.25;64.62;97743.86;1675315;85;20157;-68
2022/04/08 01:50:24;;;;;;;;;;;;;;;7.25;64.53;97743.86;1675192;85;20166;-68
2022/04/08 01:52:49;;;;;;;;;;;;;;;7.24;64.42;97735.63;1675336;85;21969;-69
2022/04/08 01:55:15;;;;;;;;;;;;;;;7.24;64.23;97752.86;1674947;85;20220;-68
2022/04/08 01:57:42;;;;;;;;;;;;;;;7.20;64.14;97750.33;1674977;85;20205;-68
2022/04/08 02:00:09;;;;;;;;;;;;;;;7.18;64.06;97752.36;1675271;85;20163;-68
2022/04/08 02:02:35;;;;;;;;;;;;;;;7.19;63.99;97753.99;1675434;85;20184;-68
2022/04/08 02:05:02;;;;;;;;;;;;;;;7.22;63.89;97760.19;1675213;85;21824;-69
2022/04/08 02:07:28;;;;;;;;;;;;;;;7.18;63.83;97755.02;1675170;85;20486;-68
2022/04/08 02:09:55;;;;;;;;;;;;;;;7.19;63.74;97760.63;1675382;84;20154;-68
2022/04/08 02:12:21;;;;;;;;;;;;;;;7.18;63.68;97769.59;1674847;85;20191;-68
2022/04/08 02:14:47;;;;;;;;;;;;;;;7.19;63.62;97770.41;1675448;85;20186;-68
2022/04/08 02:17:12;;;;;;;;;;;;;;;7.22;63.50;97757.54;1675089;84;21064;-68
2022/04/08 02:19:38;;;;;;;;;;;;;;;7.26;63.33;97779.12;1675099;85;20217;-68
2022/04/08 02:22:05;;;;;;;;;;;;;;;7.25;63.21;97773.02;1703233;84;20304;-68
2022/04/08 02:24:31;;;;;;;;;;;;;;;7.22;63.13;97778.74;1675326;85;20175;-68
2022/04/08 02:26:57;;;;;;;;;;;;;;;7.19;63.08;97781.83;1680776;83;20801;-68
2022/04/08 02:29:23;;;;;;;;;;;;;;;7.19;63.05;97795.08;1675353;85;20625;-68
2022/04/08 02:31:49;;;;;;;;;;;;;;;7.19;62.90;97784.47;1687396;85;20299;-69
2022/04/08 02:34:15;;;;;;;;;;;;;;;7.21;62.80;97811.59;1675070;85;20197;-68
2022/04/08 02:36:41;;;;;;;;;;;;;;;7.22;62.71;97801.27;1703009;84;20220;-68
2022/04/08 02:39:07;;;;;;;;;;;;;;;7.24;62.63;97805.87;1675356;85;20249;-68
2022/04/08 02:41:33;;;;;;;;;;;;;;;7.24;62.57;97791.29;1687420;85;21156;-68
2022/04/08 02:43:59;;;;;;;;;;;;;;;7.25;62.46;97796.88;1674980;85;20324;-68
2022/04/08 02:46:25;;;;;;;;;;;;;;;7.29;62.38;97814.48;1703296;84;20201;-68
2022/04/08 02:48:51;;;;;;;;;;;;;;;7.31;62.28;97827.03;1675456;85;20218;-68
2022/04/08 02:51:17;;;;;;;;;;;;;;;7.36;62.13;97819.23;1703035;84;20331;-68
2022/04/08 02:53:42;;;;;;;;;;;;;;;7.37;62.09;97824.34;1675430;85;22165;-68
2022/04/08 02:56:08;;;;;;;;;;;;;;;7.34;62.04;97811.52;1703239;84;20224;-68
2022/04/08 02:58:35;;;;;;;;;;;;;;;7.35;62.02;97831.68;1675315;85;20280;-68
2022/04/08 03:01:01;;;;;;;;;;;;;;;7.35;61.96;97822.40;1687435;85;20160;-68
2022/04/08 03:03:27;;;;;;;;;;;;;;;7.38;61.95;97816.70;1687512;85;20312;-68
2022/04/08 03:05:54;;;;;;;;;;;;;;;7.41;61.88;97842.78;1675372;85;21010;-68
2022/04/08 03:08:20;;;;;;;;;;;;;;;7.43;61.85;97839.39;1703319;84;20193;-68
2022/04/08 03:10:46;;;;;;;;;;;;;;;7.46;61.79;97845.59;1675293;85;20170;-68
2022/04/08 03:13:12;;;;;;;;;;;;;;;7.47;61.75;97843.25;1703289;84;20718;-68
2022/04/08 03:15:41;;;;;;;;;;;;;;;7.48;61.72;97853.34;1675240;85;20529;-68
2022/04/08 03:18:07;;;;;;;;;;;;;;;7.48;61.73;97862.62;1703094;84;21825;-68
2022/04/08 03:20:33;;;;;;;;;;;;;;;7.48;61.74;97880.69;1674917;85;20173;-68
2022/04/08 03:22:59;;;;;;;;;;;;;;;7.49;61.76;97884.15;1703052;84;20343;-68
2022/04/08 03:25:24;;;;;;;;;;;;;;;7.49;61.81;97890.78;1675124;85;20158;-68
2022/04/08 03:27:50;;;;;;;;;;;;;;;7.35;62.21;97919.70;1687468;84;20186;-68
2022/04/08 03:30:16;;;;;;;;;;;;;;;7.16;62.66;97926.69;1687303;85;21967;-68
2022/04/08 03:32:42;;;;;;;;;;;;;;;7.03;63.00;97938.66;1687303;85;20221;-68
2022/04/08 03:35:08;;;;;;;;;;;;;;;6.88;63.41;97965.89;1687305;85;20310;-68
2022/04/08 03:37:34;;;;;;;;;;;;;;;6.66;63.94;97977.20;1686856;85;20171;-68
2022/04/08 03:40:00;;;;;;;;;;;;;;;6.37;64.58;97975.77;1687337;85;20210;-68
2022/04/08 03:42:26;;;;;;;;;;;;;;;6.19;65.26;97992.77;1687452;85;21135;-68
2022/04/08 03:44:51;;;;;;;;;;;;;;;6.10;65.75;97992.64;1675020;85;20245;-68
2022/04/08 03:47:19;;;;;;;;;;;;;;;6.05;66.27;97983.18;1703178;84;20236;-68
2022/04/08 03:49:46;;;;;;;;;;;;;;;6.03;66.71;97995.77;1675262;85;20267;-68
2022/04/08 03:52:12;;;;;;;;;;;;;;;6.02;67.22;98023.23;1688045;83;20181;-68
2022/04/08 03:54:38;;;;;;;;;;;;;;;5.98;67.56;98018.85;1675032;85;22229;-68
2022/04/08 03:57:04;;;;;;;;;;;;;;;5.97;67.91;98019.89;1687133;85;20762;-68
2022/04/08 03:59:30;;;;;;;;;;;;;;;5.93;68.27;98016.00;1675400;85;20168;-69
2022/04/08 04:01:56;;;;;;;;;;;;;;;5.88;68.51;98025.53;1687311;84;20741;-69
2022/04/08 04:04:23;;;;;;;;;;;;;;;5.85;68.72;98039.94;1687402;85;20225;-69
2022/04/08 04:06:49;;;;;;;;;;;;;;;5.82;68.90;98038.20;1675443;85;21149;-69
2022/04/08 04:09:15;;;;;;;;;;;;;;;5.80;69.08;98041.56;1687131;85;20364;-69
2022/04/08 04:11:40;;;;;;;;;;;;;;;5.84;69.29;98037.52;1687192;85;20493;-69
2022/04/08 04:14:06;;;;;;;;;;;;;;;5.87;69.37;98051.69;1687366;85;20683;-69
2022/04/08 04:16:33;;;;;;;;;;;;;;;5.88;69.46;98062.56;1675149;85;20451;-69
2022/04/08 04:18:59;;;;;;;;;;;;;;;5.88;69.60;98078.42;1674853;85;21644;-69
2022/04/08 04:21:25;;;;;;;;;;;;;;;5.90;69.71;98087.00;1674800;85;20229;-69
2022/04/08 04:23:51;;;;;;;;;;;;;;;5.89;69.88;98080.06;1674849;85;20265;-69
2022/04/08 04:26:16;;;;;;;;;;;;;;;5.85;70.03;98080.94;1674556;84;20214;-69
2022/04/08 04:28:43;;;;;;;;;;;;;;;5.84;70.22;98087.77;1674894;85;20236;-69
2022/04/08 04:31:08;;;;;;;;;;;;;;;5.83;70.41;98100.67;1674794;85;21024;-69
2022/04/08 04:33:34;;;;;;;;;;;;;;;5.79;70.64;98098.10;1674714;85;20249;-69
2022/04/08 04:38:26;;;;;;;;;;;;;;;5.81;70.95;98107.96;1709395;81;101815;-69
2022/04/08 04:40:51;;;;;;;;;;;;;;;5.82;71.10;98105.64;1748027;82;20766;-69
2022/04/08 04:43:17;;;;;;;;;;;;;;;5.87;71.23;98114.66;1747683;82;21054;-69
2022/04/08 04:45:43;;;;;;;;;;;;;;;5.90;71.35;98118.73;1748129;82;20194;-69
2022/04/08 04:48:10;;;;;;;;;;;;;;;5.94;71.44;98110.73;1747964;82;20184;-69
2022/04/08 04:50:38;;;;;;;;;;;;;;;5.99;71.54;98118.37;1748154;82;20336;-69
2022/04/08 04:53:04;;;;;;;;;;;;;;;6.06;71.59;98121.04;1747532;81;20156;-69
2022/04/08 04:55:30;;;;;;;;;;;;;;;6.10;71.65;98126.75;1747723;82;21175;-69
2022/04/08 04:57:57;;;;;;;;;;;;;;;6.12;71.69;98121.59;1747960;82;20178;-69
2022/04/08 05:00:23;;;;;;;;;;;;;;;6.19;71.74;98133.03;1748008;82;20189;-69
2022/04/08 05:02:49;;;;;;;;;;;;;;;6.25;71.78;98128.26;1747968;82;20507;-69
2022/04/08 05:05:15;;;;;;;;;;;;;;;6.27;71.78;98142.09;1748058;82;20513;-69
2022/04/08 05:07:40;;;;;;;;;;;;;;;6.28;71.83;98138.95;1748080;82;21189;-69
2022/04/08 05:10:07;;;;;;;;;;;;;;;6.28;71.86;98147.70;1747932;82;20160;-69
2022/04/08 05:12:35;;;;;;;;;;;;;;;6.29;71.87;98145.88;1748184;82;20455;-69
2022/04/08 05:15:09;;;;;;;;;;;;;;;6.29;71.87;98149.84;1748081;82;20157;-69
2022/04/08 05:17:37;;;;;;;;;;;;;;;6.32;71.87;98146.30;1748079;82;20152;-69
2022/04/08 05:20:04;;;;;;;;;;;;;;;6.36;71.87;98158.13;1747184;82;21620;-69
2022/04/08 05:22:29;;;;;;;;;;;;;;;6.40;71.90;98164.63;1748160;82;20165;-69
2022/04/08 05:24:55;;;;;;;;;;;;;;;6.47;71.89;98162.83;1748100;82;20175;-69
2022/04/08 05:27:21;;;;;;;;;;;;;;;6.58;71.86;98169.91;1747971;82;20602;-69
2022/04/08 05:29:47;;;;;;;;;;;;;;;6.76;71.79;98163.02;1748245;82;20262;-69
2022/04/08 05:32:13;;;;;;;;;;;;;;;6.80;71.78;98176.67;1747844;82;21188;-69
2022/04/08 05:34:38;;;;;;;;;;;;;;;7.01;71.75;98187.11;1748015;81;20171;-69
2022/04/08 05:37:04;;;;;;;;;;;;;;;7.27;71.67;98189.81;1746416;82;20923;-69
2022/04/08 05:39:30;;;;;;;;;;;;;;;7.20;71.60;98195.62;1733993;81;20178;-69
2022/04/08 05:41:56;;;;;;;;;;;;;;;7.10;71.58;98196.52;1734407;82;20254;-69
2022/04/08 05:44:22;;;;;;;;;;;;;;;7.01;71.55;98199.04;1734125;81;21124;-69
2022/04/08 05:46:47;;;;;;;;;;;;;;;6.95;71.52;98198.53;1734390;82;20309;-69
2022/04/08 05:49:13;;;;;;;;;;;;;;;6.91;71.46;98207.89;1734016;82;20218;-69
2022/04/08 05:51:39;;;;;;;;;;;;;;;6.87;71.44;98211.95;1734023;82;20234;-69
2022/04/08 05:54:05;;;;;;;;;;;;;;;6.84;71.39;98207.88;1733815;82;20754;-69
2022/04/08 05:56:31;;;;;;;;;;;;;;;6.87;71.35;98223.37;1733818;82;21123;-69
2022/04/08 05:58:57;;;;;;;;;;;;;;;7.11;71.29;98228.61;1734228;82;20773;-69
2022/04/08 06:01:23;;;;;;;;;;;;;;;7.22;71.18;98230.67;1734246;82;20229;-69
2022/04/08 06:03:49;;;;;;;;;;;;;;;7.26;71.08;98242.52;1734060;81;20193;-69
2022/04/08 06:06:15;;;;;;;;;;;;;;;7.35;70.96;98229.36;1732509;82;20229;-69
2022/04/08 06:08:41;;;;;;;;;;;;;;;7.46;70.84;98243.85;1732708;82;21179;-69
2022/04/08 06:11:07;;;;;;;;;;;;;;;7.59;70.74;98238.58;1733687;82;20773;-69
2022/04/08 06:13:32;;;;;;;;;;;;;;;8.03;70.60;98240.58;1734147;82;20202;-69
2022/04/08 06:15:58;;;;;;;;;;;;;;;8.31;70.44;98249.13;1734164;82;20166;-69
2022/04/08 06:18:24;;;;;;;;;;;;;;;8.46;70.23;98249.71;1734058;82;20162;-69
2022/04/08 06:20:50;;;;;;;;;;;;;;;8.39;69.97;98260.05;1734175;82;21963;-69
2022/04/08 06:23:17;;;;;;;;;;;;;;;8.32;69.80;98268.54;1733799;82;20201;-69
2022/04/08 06:25:43;;;;;;;;;;;;;;;8.17;69.67;98262.09;1734253;82;20164;-69
2022/04/08 06:28:08;;;;;;;;;;;;;;;7.99;69.53;98273.86;1733652;82;20153;-69
2022/04/08 06:30:36;;;;;;;;;;;;;;;7.85;69.40;98269.58;1734300;82;21034;-69
2022/04/08 06:33:05;;;;;;;;;;;;;;;7.75;69.34;98271.83;1734297;82;21108;-69
2022/04/08 06:35:32;;;;;;;;;;;;;;;7.75;69.31;98269.17;1734089;82;20151;-69
2022/04/08 06:37:59;;;;;;;;;;;;;;;7.97;69.20;98293.16;1734128;82;20274;-69
2022/04/08 06:40:25;;;;;;;;;;;;;;;8.05;69.03;98291.64;1733866;82;20153;-69
2022/04/08 06:42:57;;;;;;;;;;;;;;;8.02;68.85;98288.86;1734421;82;20482;-70
2022/04/08 06:45:23;;;;;;;;;;;;;;;7.88;68.73;98291.75;1733945;81;21819;-69
2022/04/08 06:47:49;;;;;;;;;;;;;;;7.74;68.62;98300.72;1734556;82;20175;-69
2022/04/08 06:50:15;;;;;;;;;;;;;;;7.63;68.54;98310.61;1734376;82;20253;-69
2022/04/08 06:52:41;;;;;;;;;;;;;;;7.54;68.52;98313.44;1734210;82;20163;-69
2022/04/08 06:55:08;;;;;;;;;;;;;;;7.50;68.51;98318.84;1734396;82;20249;-70
2022/04/08 06:57:34;;;;;;;;;;;;;;;7.52;68.48;98316.00;1734125;81;21807;-69
2022/04/08 07:00:00;;;;;;;;;;;;;;;7.59;68.42;98323.45;1734165;82;20183;-69
2022/04/08 07:02:26;;;;;;;;;;;;;;;7.71;68.37;98330.28;1734570;82;20181;-69
2022/04/08 07:04:53;;;;;;;;;;;;;;;7.89;68.30;98343.78;1734309;82;20768;-69
2022/04/08 07:07:19;;;;;;;;;;;;;;;7.96;68.22;98340.63;1734199;82;20190;-69
2022/04/08 07:09:44;;;;;;;;;;;;;;;7.94;68.11;98345.33;1734603;82;21353;-69
2022/04/08 07:12:10;;;;;;;;;;;;;;;7.80;68.01;98363.58;1734271;82;20189;-69
2022/04/08 07:14:36;;;;;;;;;;;;;;;7.67;67.96;98360.92;1734306;82;20245;-69
2022/04/08 07:17:02;;;;;;;;;;;;;;;7.57;67.95;98352.00;1734233;82;20158;-69
2022/04/08 07:19:28;;;;;;;;;;;;;;;7.49;67.94;98339.73;1731983;82;20159;-69
2022/04/08 07:21:55;;;;;;;;;;;;;;;7.52;67.99;98381.80;1732623;82;21711;-69
2022/04/08 07:24:21;;;;;;;;;;;;;;;7.53;68.00;98379.94;1734382;82;20450;-69
2022/04/08 07:26:47;;;;;;;;;;;;;;;7.48;68.06;98400.95;1733901;82;20300;-69
2022/04/08 07:29:13;;;;;;;;;;;;;;;7.32;68.15;98427.80;1734114;82;20239;-69
2022/04/08 07:31:39;;;;;;;;;;;;;;;7.00;68.39;98414.72;1733800;82;20166;-69
2022/04/08 07:34:05;;;;;;;;;;;;;;;6.82;68.73;98417.05;1733750;82;21771;-69
2022/04/08 07:36:31;;;;;;;;;;;;;;;6.76;69.14;98449.59;1733502;82;20197;-69
2022/04/08 07:38:56;;;;;;;;;;;;;;;6.62;69.37;98450.52;1731472;82;20222;-69
2022/04/08 07:41:22;;;;;;;;;;;;;;;6.56;69.69;98448.64;1726747;82;20170;-69
2022/04/08 07:43:50;;;;;;;;;;;;;;;6.66;70.00;98468.98;1726876;83;20233;-69
2022/04/08 07:46:15;;;;;;;;;;;;;;;6.84;70.17;98465.35;1726624;83;21154;-69
2022/04/08 07:48:41;;;;;;;;;;;;;;;6.95;70.30;98476.24;1726891;82;20217;-69
2022/04/08 07:51:07;;;;;;;;;;;;;;;6.95;70.44;98470.12;1726754;83;20182;-69
2022/04/08 07:53:33;;;;;;;;;;;;;;;6.89;70.58;98472.23;1726811;83;20495;-69
2022/04/08 07:55:59;;;;;;;;;;;;;;;6.85;70.72;98468.32;1726969;83;20132;-69
2022/04/08 07:58:25;;;;;;;;;;;;;;;6.77;70.79;98505.55;1726858;83;21179;-69
2022/04/08 08:00:53;;;;;;;;;;;;;;;6.49;70.85;98510.31;1726814;82;20298;-69
2022/04/08 08:03:19;;;;;;;;;;;;;;;6.23;70.94;98519.81;1726766;83;20156;-69
2022/04/08 08:05:45;;;;;;;;;;;;;;;5.97;70.99;98524.34;1726797;83;20159;-69
2022/04/08 08:08:11;;;;;;;;;;;;;;;5.83;71.07;98541.86;1726711;83;20186;-69
2022/04/08 08:10:37;;;;;;;;;;;;;;;5.78;71.16;98540.75;1726889;82;21172;-69
2022/04/08 08:13:03;;;;;;;;;;;;;;;5.75;71.24;98549.06;1726894;83;20174;-69
2022/04/08 08:15:30;;;;;;;;;;;;;;;5.70;71.32;98553.58;1726775;83;20222;-69
2022/04/08 08:17:57;;;;;;;;;;;;;;;5.67;71.39;98541.22;1726979;83;20140;-69
2022/04/08 08:20:23;;;;;;;;;;;;;;;5.66;71.52;98552.83;1726571;83;20156;-69
2022/04/08 08:22:49;;;;;;;;;;;;;;;5.69;71.71;98549.81;1726698;83;21924;-69
2022/04/08 08:25:15;;;;;;;;;;;;;;;5.68;71.90;98565.34;1726778;83;20225;-69
2022/04/08 08:27:46;;;;;;;;;;;;;;;5.68;72.10;98567.50;1726809;83;20187;-69
2022/04/08 08:30:14;;;;;;;;;;;;;;;5.70;72.26;98572.61;1726529;82;20156;-69
2022/04/08 08:32:40;;;;;;;;;;;;;;;5.72;72.43;98577.20;1726754;83;20195;-69
2022/04/08 08:35:10;;;;;;;;;;;;;;;5.77;72.61;98580.12;1726898;83;21055;-69
2022/04/08 08:37:36;;;;;;;;;;;;;;;5.88;72.77;98583.14;1724052;83;20184;-68
2022/04/08 08:40:03;;;;;;;;;;;;;;;6.19;73.00;98585.56;1736356;82;20276;-69
2022/04/08 08:42:29;;;;;;;;;;;;;;;6.49;73.04;98575.19;1742501;81;20501;-69
2022/04/08 08:44:55;;;;;;;;;;;;;;;6.81;73.19;98571.20;1742337;82;20292;-69
2022/04/08 08:47:20;;;;;;;;;;;;;;;6.95;73.23;98576.11;1742531;82;21081;-69
2022/04/08 08:49:50;;;;;;;;;;;;;;;7.09;73.23;98588.45;1742154;81;20252;-69
2022/04/08 08:52:18;;;;;;;;;;;;;;;7.42;73.31;98586.84;1742477;82;20167;-69
2022/04/08 08:54:47;;;;;;;;;;;;;;;7.66;73.25;98580.78;1742479;82;20172;-69
2022/04/08 08:57:16;;;;;;;;;;;;;;;7.73;73.13;98577.66;1691893;84;20169;-69
2022/04/08 08:59:44;;;;;;;;;;;;;;;7.50;72.98;98582.72;1692262;85;21970;-69
2022/04/08 09:02:11;;;;;;;;;;;;;;;7.14;72.98;98580.76;1695471;84;20432;-69
2022/04/08 09:04:41;;;;;;;;;;;;;;;7.07;73.14;98581.22;1684377;84;20478;-70
2022/04/08 09:07:27;;;;;;;;;;;;;;;7.40;73.29;98584.91;1684060;84;20672;-69
2022/04/08 09:09:54;;;;;;;;;;;;;;;7.74;73.32;98576.65;1684479;85;20148;-69
2022/04/08 09:12:21;;;;;;;;;;;;;;;7.80;73.36;98578.51;1684289;84;21080;-69
2022/04/08 09:14:55;;;;;;;;;;;;;;;8.01;73.45;98579.73;1684242;84;20175;-70
2022/04/08 09:17:22;;;;;;;;;;;;;;;8.05;73.39;98583.63;1684330;85;20152;-69
2022/04/08 09:19:53;;;;;;;;;;;;;;;8.00;73.36;98576.75;1684322;85;20155;-70
2022/04/08 09:22:20;;;;;;;;;;;;;;;7.88;73.33;98583.13;1684620;85;20207;-69
2022/04/08 09:24:46;;;;;;;;;;;;;;;7.69;73.28;98594.47;1684286;85;21024;-69
2022/04/08 09:27:12;;;;;;;;;;;;;;;7.49;73.29;98589.03;1684320;84;20229;-70
2022/04/08 09:29:43;;;;;;;;;;;;;;;7.32;73.33;98595.66;1684224;84;20468;-69
2022/04/08 09:32:10;;;;;;;;;;;;;;;7.20;73.39;98601.19;1684304;84;20171;-69
2022/04/08 09:34:37;;;;;;;;;;;;;;;7.04;73.48;98609.40;1684441;85;20211;-69
2022/04/08 09:37:10;;;;;;;;;;;;;;;6.97;73.56;98596.59;1684258;85;21129;-69
2022/04/08 09:39:54;;;;;;;;;;;;;;;7.08;73.65;98590.78;1675864;85;20141;-69
2022/04/08 09:42:20;;;;;;;;;;;;;;;7.26;73.72;98591.13;1663289;86;20201;-69
2022/04/08 09:44:47;;;;;;;;;;;;;;;7.36;73.78;98594.26;1664860;86;20296;-69
2022/04/08 09:47:15;;;;;;;;;;;;;;;7.30;73.79;98591.06;1664357;86;20605;-69
2022/04/08 09:49:44;;;;;;;;;;;;;;;7.23;73.83;98579.59;1664577;86;21139;-69
2022/04/08 09:52:09;;;;;;;;;;;;;;;7.14;73.88;98576.78;1664874;86;20165;-69
2022/04/08 09:54:37;;;;;;;;;;;;;;;7.12;73.93;98581.44;1665221;86;20250;-69
2022/04/08 09:57:03;;;;;;;;;;;;;;;6.92;73.90;98595.05;1665124;86;20145;-69
2022/04/08 09:59:30;;;;;;;;;;;;;;;6.70;73.91;98581.48;1665082;86;20152;-69
2022/04/08 10:01:57;;;;;;;;;;;;;;;6.73;73.96;98596.50;1665133;86;21114;-70
2022/04/08 10:04:23;;;;;;;;;;;;;;;7.07;74.06;98589.16;1664865;86;20180;-70
2022/04/08 10:06:49;;;;;;;;;;;;;;;7.37;74.06;98579.99;1664688;86;20202;-70
2022/04/08 10:09:16;;;;;;;;;;;;;;;7.86;74.13;98568.42;1664701;86;20357;-70
2022/04/08 10:11:50;;;;;;;;;;;;;;;8.20;74.01;98574.98;1664978;85;20184;-70
2022/04/08 10:14:35;;;;;;;;;;;;;;;8.44;73.90;98566.50;1665166;86;21082;-70
2022/04/08 10:17:01;;;;;;;;;;;;;;;8.68;73.74;98581.58;1664996;86;20184;-70
2022/04/08 10:19:28;;;;;;;;;;;;;;;8.55;72.87;98654.63;1645775;86;20215;-70
2022/04/08 10:21:54;;;;;;;;;;;;;;;7.69;72.23;98686.51;1664785;86;20165;-70
2022/04/08 10:24:25;;;;;;;;;;;;;;;6.70;72.01;98716.08;1665174;86;20190;-70
2022/04/08 10:26:58;;;;;;;;;;;;;;;5.83;71.95;98713.78;1665059;86;21980;-70
2022/04/08 10:29:24;;;;;;;;;;;;;;;5.22;72.02;98712.19;1664801;86;20177;-69
2022/04/08 10:31:57;;;;;;;;;;;;;;;4.82;72.15;98735.73;1665252;86;20149;-70
2022/04/08 10:34:23;;;;;;;;;;;;;;;4.53;72.31;98748.28;1664955;86;20278;-70
2022/04/08 10:36:49;;;;;;;;;;;;;;;4.30;72.47;98753.97;1664960;86;20272;-69
2022/04/08 10:39:18;;;;;;;;;;;;;;;4.09;72.67;98745.79;1665261;85;21175;-69
2022/04/08 10:41:49;;;;;;;;;;;;;;;3.91;72.83;98714.84;1669153;85;20156;-70
2022/04/08 10:44:15;;;;;;;;;;;;;;;3.87;73.00;98726.75;1669391;85;20144;-70
2022/04/08 10:46:49;;;;;;;;;;;;;;;3.87;73.18;98731.50;1669133;85;20196;-69
2022/04/08 10:49:15;;;;;;;;;;;;;;;3.95;73.34;98728.03;1669083;86;20490;-70
2022/04/08 10:51:48;;;;;;;;;;;;;;;4.12;73.55;98720.91;1669320;85;21210;-70
2022/04/08 10:54:15;;;;;;;;;;;;;;;4.28;73.71;98712.43;1669145;86;20467;-69
2022/04/08 10:56:40;;;;;;;;;;;;;;;4.51;73.86;98729.14;1669329;85;20633;-69
2022/04/08 10:59:07;;;;;;;;;;;;;;;4.70;74.01;98721.30;1669311;85;20159;-70
2022/04/08 11:01:35;;;;;;;;;;;;;;;4.85;74.14;98724.02;1669432;86;20173;-70
2022/04/08 11:04:03;;;;;;;;;;;;;;;4.89;74.27;98727.95;1650220;86;21593;-70
2022/04/08 11:06:31;;;;;;;;;;;;;;;4.94;74.44;98730.88;1668081;86;20149;-70
2022/04/08 11:09:09;;;;;;;;;;;;;;;5.05;74.57;98731.80;1668917;85;20262;-69
2022/04/08 11:11:36;;;;;;;;;;;;;;;5.14;74.68;98730.73;1666431;85;20161;-69
2022/04/08 11:14:02;;;;;;;;;;;;;;;5.28;74.81;98729.97;1669351;85;20539;-69
2022/04/08 11:16:30;;;;;;;;;;;;;;;5.46;74.89;98737.09;1669342;86;21101;-69
2022/04/08 11:18:56;;;;;;;;;;;;;;;5.67;74.96;98732.94;1669443;85;20444;-70
2022/04/08 11:21:23;;;;;;;;;;;;;;;5.74;75.03;98739.16;1669337;86;20266;-70
2022/04/08 11:24:06;;;;;;;;;;;;;;;5.78;75.06;98732.01;1669359;86;20165;-70
2022/04/08 11:26:49;;;;;;;;;;;;;;;5.86;75.10;98727.17;1669365;85;20188;-70
2022/04/08 11:29:22;;;;;;;;;;;;;;;5.91;75.09;98728.80;1668909;85;21209;-69
2022/04/08 11:31:51;;;;;;;;;;;;;;;6.14;75.09;98729.52;1669360;85;20128;-70
2022/04/08 11:34:16;;;;;;;;;;;;;;;6.28;75.06;98722.08;1665418;84;20180;-70
2022/04/08 11:36:43;;;;;;;;;;;;;;;6.46;75.06;98721.20;1669254;86;20226;-70
2022/04/08 11:39:09;;;;;;;;;;;;;;;6.76;75.07;98714.00;1669029;86;20468;-70
2022/04/08 11:41:36;;;;;;;;;;;;;;;7.02;75.03;98718.77;1664782;85;22087;-70
2022/04/08 11:44:03;;;;;;;;;;;;;;;7.22;74.98;98720.27;1665064;86;20480;-70
2022/04/08 11:46:29;;;;;;;;;;;;;;;7.41;74.88;98721.80;1664841;86;20161;-70
2022/04/08 11:48:54;;;;;;;;;;;;;;;7.59;74.81;98726.64;1665044;86;20163;-70
2022/04/08 11:51:21;;;;;;;;;;;;;;;7.71;74.72;98724.27;1664434;86;20167;-70
2022/04/08 11:53:48;;;;;;;;;;;;;;;7.81;74.63;98714.16;1664996;86;21170;-70
2022/04/08 11:56:22;;;;;;;;;;;;;;;7.78;74.45;98727.79;1664642;86;20200;-70
2022/04/08 11:59:04;;;;;;;;;;;;;;;7.71;74.33;98718.95;1664842;86;20215;-69
2022/04/08 12:01:31;;;;;;;;;;;;;;;7.81;74.22;98715.48;1664953;86;20157;-70
2022/04/08 12:04:03;;;;;;;;;;;;;;;7.87;74.05;98712.05;1664921;86;20172;-70
2022/04/08 12:06:35;;;;;;;;;;;;;;;8.04;73.93;98704.09;1664207;86;20976;-70
2022/04/08 12:09:01;;;;;;;;;;;;;;;8.17;73.76;98701.50;1663846;86;20164;-70
2022/04/08 12:11:28;;;;;;;;;;;;;;;8.22;73.55;98691.13;1665072;85;20210;-70
2022/04/08 12:13:56;;;;;;;;;;;;;;;8.24;73.38;98703.69;1623645;86;20164;-70
2022/04/08 12:16:22;;;;;;;;;;;;;;;8.49;73.32;98692.91;1664825;86;20157;-70
2022/04/08 12:18:51;;;;;;;;;;;;;;;8.78;73.17;98694.95;1664956;86;21041;-70
2022/04/08 12:21:27;;;;;;;;;;;;;;;8.91;72.89;98685.67;1664698;85;20195;-70
2022/04/08 12:23:55;;;;;;;;;;;;;;;9.03;72.74;98681.42;1664892;86;20137;-70
2022/04/08 12:26:26;;;;;;;;;;;;;;;8.98;72.48;98682.52;1664686;86;20160;-70
2022/04/08 12:29:08;;;;;;;;;;;;;;;8.96;72.24;98687.23;1665001;86;20160;-70
2022/04/08 12:31:50;;;;;;;;;;;;;;;9.00;71.98;98681.83;1664852;85;21116;-70
2022/04/08 12:34:17;;;;;;;;;;;;;;;9.06;71.73;98678.86;1664618;86;20208;-70
2022/04/08 12:36:43;;;;;;;;;;;;;;;8.95;71.38;98676.28;1665036;86;20179;-70
2022/04/08 12:39:11;;;;;;;;;;;;;;;8.83;71.06;98673.38;1642980;85;20164;-70
2022/04/08 12:41:42;;;;;;;;;;;;;;;8.84;70.84;98676.36;1645765;86;20205;-70
2022/04/08 12:44:08;;;;;;;;;;;;;;;8.80;70.41;98668.98;1644395;86;22135;-70
2022/04/08 12:46:34;;;;;;;;;;;;;;;8.78;70.04;98669.70;1644681;86;20165;-70
2022/04/08 12:49:00;;;;;;;;;;;;;;;8.93;69.88;98658.39;1644629;87;20177;-70
2022/04/08 12:51:27;;;;;;;;;;;;;;;9.04;69.60;98663.12;1653700;87;20450;-70
2022/04/08 12:53:53;;;;;;;;;;;;;;;9.01;69.18;98654.20;1654064;85;20431;-70
2022/04/08 12:56:19;;;;;;;;;;;;;;;8.91;68.76;98653.78;1653933;86;21151;-70
2022/04/08 12:58:46;;;;;;;;;;;;;;;8.91;68.54;98657.25;1653962;86;20165;-70